Terminal Aerodrome Forecast
Issued by NWS

Home | Current Version | Previous Version | Text Only | Print | Product List | Glossary On
Versions: 1 2 3 4 5 6 7 8 9 10 11 12 13 14 15 16 17 18 19 20 21 22 23 24 25 26 27 28
000
FTUS45 KGJT 272341
TAFVEL
TAF
KVEL 272341Z 2800/2824 24004KT P6SM FEW045 SCT080
     FM280300 29003KT P6SM FEW045 BKN080
     FM281500 VRB03KT P6SM SCT045 BKN080
     FM282100 11005KT P6SM VCSH BKN045 OVC070=

USA.gov is the U.S. government's official web portal to all federal, state and local government web resources and services.